Terminal Aerodrome Forecast
Issued by NWS Green Bay, WI

Home | Current Version | Previous Version | Text Only | Print | Product List | Glossary Off
Versions: 1 2 3 4 5 6 7 8 9 10 11 12 13

000
FTUS43 KGRB 221736
TAFGRB
TAF
KGRB 221736Z 2218/2318 VRB03KT P6SM SCT025
      TEMPO 2218/2219 BKN018
     FM221900 VRB03KT P6SM SCT040
     FM230000 23003KT P6SM FEW250
     FM230900 VRB03KT 3SM BR SCT006
     FM231300 23004KT P6SM FEW250
     FM231600 22006KT P6SM SCT040=

USA.gov is the U.S. government's official web portal to all federal, state and local government web resources and services.